Time;durP1;ratioP1;P1;durP2;ratioP2;P2;SDS_P1;SDS_P2;PMS_P1;PMS_P2;Temp;Humidity;BMP_temperature;BMP_pressure;BME280_temperature;BME280_humidity;BME280_pressure;Samples;Min_cycle;Max_cycle;Signal;HPM_P1;HPM_P2
2021/04/17 00:00:18;;;;;;;8.82;5.65;;;;;;;23.37;21.41;98339.91;5056995;28;20035;-88
2021/04/17 00:02:44;;;;;;;7.05;4.28;;;;;;;23.62;21.21;98336.75;5041101;28;20600;-88
2021/04/17 00:05:11;;;;;;;10.73;6.82;;;;;;;22.23;22.39;98336.09;5049116;28;20029;-89
2021/04/17 00:07:37;;;;;;;8.52;4.60;;;;;;;22.50;22.45;98334.19;5050953;28;20044;-89
2021/04/17 00:10:05;;;;;;;8.18;4.57;;;;;;;23.34;21.60;98332.31;5033199;28;20041;-88
2021/04/17 00:12:31;;;;;;;7.68;4.95;;;;;;;23.68;21.13;98329.44;5039024;28;20033;-89
2021/04/17 00:14:57;;;;;;;6.93;4.35;;;;;;;23.77;20.80;98326.88;5051595;28;20033;-89
2021/04/17 00:17:23;;;;;;;8.93;4.88;;;;;;;23.82;20.98;98327.19;5041135;28;20116;-88
2021/04/17 00:19:53;;;;;;;7.03;4.35;;;;;;;23.86;20.78;98329.91;5035592;28;20037;-89
2021/04/17 00:22:19;;;;;;;8.70;5.30;;;;;;;24.08;20.73;98331.19;5040907;28;20037;-89
2021/04/17 00:24:45;;;;;;;7.03;4.15;;;;;;;24.13;20.67;98330.69;5047013;28;20044;-89
2021/04/17 00:27:11;;;;;;;7.82;4.78;;;;;;;23.88;20.82;98328.28;5055005;28;20116;-88
2021/04/17 00:29:38;;;;;;;7.57;4.43;;;;;;;24.02;20.72;98322.41;5052377;28;20490;-89
2021/04/17 00:32:06;;;;;;;8.63;5.18;;;;;;;24.04;20.51;98319.16;5053679;28;20037;-89
2021/04/17 00:34:33;;;;;;;5.20;3.80;;;;;;;23.12;21.73;98320.66;5064581;28;20017;-96
2021/04/17 00:36:59;;;;;;;10.00;6.00;;;;;;;23.25;21.45;98321.66;5060069;28;20032;-95
2021/04/17 00:39:25;;;;;;;8.52;4.68;;;;;;;23.22;21.52;98319.69;5057812;28;20055;-93
2021/04/17 00:41:51;;;;;;;6.32;4.07;;;;;;;23.49;21.19;98313.31;5051734;28;20029;-95
2021/04/17 00:44:18;;;;;;;6.28;4.72;;;;;;;22.72;22.10;98315.19;5050637;28;20032;-90
2021/04/17 00:46:44;;;;;;;7.53;4.68;;;;;;;23.21;21.51;98317.31;5062127;28;20052;-92
2021/04/17 00:49:12;;;;;;;7.93;4.88;;;;;;;23.54;21.17;98316.44;5041509;28;20426;-90
2021/04/17 00:51:39;;;;;;;6.63;4.28;;;;;;;23.41;21.35;98314.66;5049758;28;20026;-92
2021/04/17 00:54:06;;;;;;;7.78;4.40;;;;;;;23.17;21.48;98319.38;5041891;28;20056;-94
2021/04/17 00:56:32;;;;;;;9.25;4.90;;;;;;;23.05;21.74;98325.56;5039136;28;20050;-93
2021/04/17 00:58:58;;;;;;;7.28;4.40;;;;;;;22.63;22.23;98335.28;5045053;28;20159;-89
2021/04/17 01:01:24;;;;;;;7.13;4.45;;;;;;;22.31;22.40;98332.03;5049919;28;20087;-90
2021/04/17 01:03:54;;;;;;;4.88;3.90;;;;;;;21.59;23.39;98328.28;5051144;28;20032;-94
2021/04/17 01:06:46;;;;;;;7.10;4.90;;;;;;;21.20;24.06;98333.34;5051128;28;20033;-93
2021/04/17 01:09:39;;;;;;;8.75;4.50;;;;;;;21.56;23.66;98329.13;5038548;28;20047;-90
2021/04/17 01:12:22;;;;;;;7.07;4.10;;;;;;;22.34;22.54;98332.00;5049088;28;20040;-89
2021/04/17 01:14:51;;;;;;;6.40;4.40;;;;;;;22.66;22.03;98334.47;5042440;28;20029;-89
2021/04/17 01:17:19;;;;;;;6.88;4.57;;;;;;;22.37;22.53;98339.56;5041451;28;20076;-89
2021/04/17 01:20:06;;;;;;;5.55;4.13;;;;;;;22.60;22.19;98339.72;5035404;28;20049;-89
2021/04/17 01:22:33;;;;;;;7.45;4.15;;;;;;;23.17;21.66;98337.00;5042002;28;20048;-89
2021/04/17 01:25:17;;;;;;;4.03;3.40;;;;;;;23.59;21.01;98331.97;5038649;28;20048;-89
2021/04/17 01:27:43;;;;;;;5.22;4.25;;;;;;;23.74;20.73;98331.31;5045133;28;20116;-90
2021/04/17 01:30:18;;;;;;;10.55;5.97;;;;;;;23.30;21.23;98328.78;5038924;28;20037;-89
2021/04/17 01:32:46;;;;;;;5.25;3.63;;;;;;;22.90;22.03;98324.94;5044414;28;20029;-89
2021/04/17 01:35:16;;;;;;;6.05;4.28;;;;;;;23.28;21.63;98328.41;5051895;28;20112;-90
2021/04/17 01:37:51;;;;;;;7.55;4.82;;;;;;;23.16;21.50;98329.00;5037317;28;20029;-90
2021/04/17 01:40:20;;;;;;;6.53;4.65;;;;;;;23.18;21.31;98330.16;5036473;28;20087;-89
2021/04/17 01:42:46;;;;;;;6.60;4.10;;;;;;;23.42;21.34;98333.84;5043166;28;20032;-89
2021/04/17 01:45:17;;;;;;;4.82;3.58;;;;;;;22.92;21.77;98335.75;5037023;28;20079;-89
2021/04/17 01:47:44;;;;;;;6.40;4.68;;;;;;;22.85;21.81;98333.81;5046248;28;20120;-89
2021/04/17 01:50:13;;;;;;;7.25;4.03;;;;;;;22.85;21.89;98338.63;5044390;28;20045;-89
2021/04/17 01:52:42;;;;;;;4.10;3.22;;;;;;;23.09;21.66;98331.88;5043243;28;20087;-89
2021/04/17 01:55:09;;;;;;;4.82;3.33;;;;;;;23.25;21.25;98332.84;5042388;28;20025;-90
2021/04/17 01:57:38;;;;;;;8.15;3.58;;;;;;;23.26;21.53;98333.66;5047703;28;20367;-90
2021/04/17 02:00:06;;;;;;;4.68;3.30;;;;;;;23.70;21.00;98327.78;5038644;28;20053;-89
2021/04/17 02:02:33;;;;;;;4.88;3.40;;;;;;;22.95;21.78;98329.28;5033972;28;20025;-89
2021/04/17 02:04:59;;;;;;;5.10;3.35;;;;;;;23.23;21.39;98326.09;5048733;28;20029;-89
2021/04/17 02:07:25;;;;;;;5.95;3.33;;;;;;;23.38;21.20;98329.50;5045478;28;20021;-88
2021/04/17 02:09:51;;;;;;;8.15;3.80;;;;;;;23.29;21.47;98330.00;5036481;28;20391;-88
2021/04/17 02:12:17;;;;;;;4.53;3.75;;;;;;;23.17;21.47;98324.97;5039119;28;20162;-88
2021/04/17 02:14:43;;;;;;;4.72;3.40;;;;;;;22.83;21.83;98336.22;5042831;28;20036;-89
2021/04/17 02:17:36;;;;;;;4.28;3.20;;;;;;;22.81;22.08;98341.47;5041241;28;20037;-88
2021/04/17 02:20:13;;;;;;;7.78;4.78;;;;;;;22.62;22.25;98340.09;5034230;28;20037;-88
2021/04/17 02:22:40;;;;;;;6.25;4.68;;;;;;;21.67;23.20;98335.41;5034009;28;20052;-88
2021/04/17 02:25:06;;;;;;;6.70;3.88;;;;;;;21.94;23.20;98338.38;5034886;28;20504;-88
2021/04/17 02:27:33;;;;;;;6.05;3.80;;;;;;;22.14;22.77;98330.22;5042364;28;20039;-89
2021/04/17 02:29:59;;;;;;;6.15;3.83;;;;;;;22.16;22.74;98339.78;5049532;28;20033;-88
2021/04/17 02:32:25;;;;;;;6.18;3.80;;;;;;;21.84;23.03;98340.06;5033786;28;20041;-88
2021/04/17 02:34:53;;;;;;;3.95;3.00;;;;;;;21.91;22.77;98337.19;5044883;28;20033;-88
2021/04/17 02:37:19;;;;;;;5.13;3.35;;;;;;;22.01;22.64;98325.13;5042370;28;20432;-88
2021/04/17 02:39:46;;;;;;;5.40;3.53;;;;;;;21.14;23.74;98323.81;5034300;28;20403;-89
2021/04/17 02:42:13;;;;;;;5.28;3.78;;;;;;;21.52;23.43;98327.56;5035385;28;20033;-89
2021/04/17 02:44:39;;;;;;;5.35;2.92;;;;;;;21.61;23.33;98331.44;5042362;28;20040;-88
2021/04/17 02:47:06;;;;;;;5.03;3.70;;;;;;;20.32;24.79;98330.94;5037366;28;20037;-88
2021/04/17 02:49:32;;;;;;;7.00;3.35;;;;;;;21.27;23.99;98327.72;5044089;28;20048;-88
2021/04/17 02:51:58;;;;;;;6.22;3.53;;;;;;;21.94;22.98;98327.19;5039235;28;20021;-88
2021/04/17 02:54:25;;;;;;;4.32;3.45;;;;;;;22.17;22.71;98329.41;5033672;28;20034;-90
2021/04/17 02:56:51;;;;;;;5.60;3.42;;;;;;;22.46;22.35;98328.66;5042377;28;20387;-89
2021/04/17 02:59:17;;;;;;;4.68;3.00;;;;;;;23.10;21.46;98325.09;5037264;28;20479;-89
2021/04/17 03:01:43;;;;;;;3.63;2.83;;;;;;;23.03;21.59;98333.59;5038898;28;20550;-88
2021/04/17 03:04:10;;;;;;;4.70;3.10;;;;;;;22.57;21.92;98326.53;5037241;28;20051;-89
2021/04/17 03:06:36;;;;;;;4.53;3.00;;;;;;;23.02;21.45;98326.38;5038619;28;20033;-89
2021/04/17 03:09:03;;;;;;;5.05;3.10;;;;;;;23.24;21.37;98322.84;5039809;28;20060;-89
2021/04/17 03:11:29;;;;;;;4.93;2.90;;;;;;;23.36;21.01;98327.91;5031463;28;20029;-89
2021/04/17 03:13:56;;;;;;;4.45;3.70;;;;;;;23.14;21.15;98321.00;5036252;28;20120;-89
2021/04/17 03:16:22;;;;;;;5.22;3.65;;;;;;;22.94;21.57;98328.47;5039957;28;20036;-89
2021/04/17 03:18:48;;;;;;;4.45;3.28;;;;;;;22.80;21.73;98339.09;5033540;28;20029;-89
2021/04/17 03:21:14;;;;;;;4.55;3.03;;;;;;;23.23;21.35;98331.69;5038210;28;20033;-89
2021/04/17 03:23:40;;;;;;;3.75;3.00;;;;;;;22.69;21.89;98334.41;5037410;28;20540;-88
2021/04/17 03:26:07;;;;;;;4.20;3.03;;;;;;;22.68;22.01;98341.22;5037109;28;20056;-89
2021/04/17 03:28:33;;;;;;;4.22;3.22;;;;;;;22.84;21.78;98345.44;5044698;28;20047;-89
2021/04/17 03:30:59;;;;;;;5.97;3.40;;;;;;;23.49;20.95;98330.13;5042117;28;20034;-89
2021/04/17 03:33:25;;;;;;;4.22;3.35;;;;;;;23.74;20.70;98328.50;5059123;28;20033;-90
2021/04/17 03:35:51;;;;;;;3.67;2.60;;;;;;;24.06;20.26;98333.63;5045810;28;20037;-90
2021/04/17 03:38:18;;;;;;;4.22;3.50;;;;;;;24.02;20.34;98338.44;5057732;28;20124;-91
2021/04/17 03:40:44;;;;;;;4.53;3.08;;;;;;;24.12;20.28;98333.91;5035217;28;20063;-90
2021/04/17 03:43:10;;;;;;;4.97;3.33;;;;;;;23.68;20.70;98335.84;5047826;28;20787;-90
2021/04/17 03:45:36;;;;;;;3.63;2.70;;;;;;;23.89;20.60;98335.47;5040790;28;20390;-91
2021/04/17 03:48:03;;;;;;;4.40;2.92;;;;;;;;;;5039309;28;20041;-90
2021/04/17 03:50:29;;;;;;;3.83;2.40;;;;;;;23.97;20.58;98331.31;5043504;28;20029;-91
2021/04/17 03:52:55;;;;;;;4.00;2.85;;;;;;;23.80;20.60;98326.03;5033815;28;20044;-91
2021/04/17 03:55:21;;;;;;;3.50;2.70;;;;;;;23.83;20.66;98333.56;5045346;28;20084;-91
2021/04/17 03:57:47;;;;;;;4.15;2.78;;;;;;;23.91;20.50;98335.84;5050160;28;20077;-91
2021/04/17 04:00:18;;;;;;;5.53;3.15;;;;;;;23.97;20.40;98333.31;5055799;28;20078;-91
2021/04/17 04:02:44;;;;;;;4.45;2.40;;;;;;;24.19;20.22;98337.38;5049823;28;20042;-90
2021/04/17 04:05:11;;;;;;;3.15;2.17;;;;;;;24.42;19.89;98342.16;5044388;28;20116;-90
2021/04/17 04:07:38;;;;;;;3.42;2.83;;;;;;;24.43;19.85;98338.94;5051152;28;20051;-91
2021/04/17 04:10:06;;;;;;;2.75;2.47;;;;;;;24.36;20.03;98349.50;5052811;28;20037;-90
2021/04/17 04:12:32;;;;;;;3.92;2.85;;;;;;;24.20;20.25;98343.78;5053965;28;20478;-91
2021/04/17 04:14:58;;;;;;;5.13;2.83;;;;;;;24.14;20.21;98340.66;5054395;28;20462;-91
2021/04/17 04:17:24;;;;;;;3.45;2.30;;;;;;;24.29;20.06;98344.00;5054965;28;20036;-92
2021/04/17 04:19:50;;;;;;;4.32;2.78;;;;;;;24.48;19.91;98341.22;5055544;28;20043;-90
2021/04/17 04:22:17;;;;;;;4.20;2.17;;;;;;;24.69;19.68;98351.25;5048380;28;20037;-89
2021/04/17 04:24:43;;;;;;;3.05;2.35;;;;;;;24.60;19.82;98349.00;5046811;28;20055;-90
2021/04/17 04:27:09;;;;;;;3.40;2.30;;;;;;;23.91;20.47;98346.25;5044022;28;20475;-88
2021/04/17 04:29:35;;;;;;;3.15;2.08;;;;;;;24.09;20.18;98346.78;5043227;28;20064;-91
2021/04/17 04:32:01;;;;;;;2.25;2.05;;;;;;;24.22;20.35;98358.97;5046380;28;20036;-92
2021/04/17 04:34:27;;;;;;;3.78;2.72;;;;;;;24.19;20.30;98359.81;5046187;28;20026;-91
2021/04/17 04:36:53;;;;;;;3.30;2.40;;;;;;;24.08;20.36;98361.22;5046099;28;20025;-93
2021/04/17 04:39:19;;;;;;;3.20;2.10;;;;;;;24.38;20.11;98363.88;5047550;28;20039;-91
2021/04/17 04:41:45;;;;;;;4.25;3.05;;;;;;;23.98;20.26;98355.34;5046181;28;20381;-90
2021/04/17 04:44:11;;;;;;;2.53;2.08;;;;;;;24.11;20.33;98366.75;5054070;28;20033;-90
2021/04/17 04:46:38;;;;;;;3.83;2.47;;;;;;;24.38;20.25;98361.88;5052327;28;20033;-89
2021/04/17 04:49:04;;;;;;;4.70;2.63;;;;;;;24.31;20.13;98362.00;5052571;28;20062;-90
2021/04/17 04:51:30;;;;;;;3.90;2.80;;;;;;;24.53;20.05;98368.78;5043135;28;20041;-92
2021/04/17 04:53:56;;;;;;;4.97;2.65;;;;;;;24.73;19.67;98366.00;5050120;28;20041;-90
2021/04/17 04:56:22;;;;;;;5.00;3.72;;;;;;;24.88;19.72;98361.72;5050711;28;20406;-91
2021/04/17 04:58:50;;;;;;;5.35;3.53;;;;;;;25.01;19.46;98359.03;5054481;28;20037;-90
2021/04/17 05:01:16;;;;;;;5.82;4.05;;;;;;;24.54;20.21;98364.78;5048292;28;20092;-90
2021/04/17 05:03:42;;;;;;;9.70;5.45;;;;;;;24.87;19.97;98362.94;5051647;28;20068;-90
2021/04/17 05:06:08;;;;;;;6.93;4.70;;;;;;;25.13;19.63;98359.19;5042797;28;20112;-92
2021/04/17 05:08:34;;;;;;;4.18;3.08;;;;;;;25.22;19.60;98361.41;5045881;28;20532;-89
2021/04/17 05:11:00;;;;;;;25.45;11.45;;;;;;;25.04;19.57;98355.38;5051967;28;20075;-90
2021/04/17 05:13:27;;;;;;;24.05;10.63;;;;;;;25.06;19.73;98364.97;5054095;28;20517;-89
2021/04/17 05:15:53;;;;;;;6.57;3.83;;;;;;;25.15;19.63;98362.34;5052817;28;20036;-90
2021/04/17 05:18:19;;;;;;;6.38;3.67;;;;;;;25.18;19.50;98367.06;5054639;28;20560;-88
2021/04/17 05:20:45;;;;;;;5.90;3.88;;;;;;;25.24;19.34;98364.56;5051840;28;20021;-89
2021/04/17 05:23:11;;;;;;;8.77;5.57;;;;;;;25.07;19.71;98360.91;5048400;28;20498;-89
2021/04/17 05:25:37;;;;;;;5.80;4.00;;;;;;;25.19;19.61;98363.06;5046908;28;20025;-88
2021/04/17 05:28:03;;;;;;;6.38;4.20;;;;;;;25.27;19.76;98363.69;5053512;28;20037;-90
2021/04/17 05:30:30;;;;;;;12.32;6.85;;;;;;;25.12;19.56;98357.59;5051988;28;20043;-88
2021/04/17 05:32:56;;;;;;;20.60;9.57;;;;;;;25.20;19.70;98366.66;5054004;28;20063;-90
2021/04/17 05:35:22;;;;;;;29.75;12.25;;;;;;;25.35;19.54;98368.72;5053490;28;20060;-89
2021/04/17 05:37:48;;;;;;;7.90;4.18;;;;;;;24.86;19.95;98368.97;5048006;28;20390;-88
2021/04/17 05:40:15;;;;;;;47.70;20.13;;;;;;;25.02;19.96;98355.78;5052333;28;20036;-91
2021/04/17 05:42:41;;;;;;;11.38;6.20;;;;;;;24.99;20.03;98367.91;5052399;28;20087;-90
2021/04/17 05:45:07;;;;;;;8.30;4.70;;;;;;;24.22;20.47;98352.56;5051554;28;20104;-88
2021/04/17 05:47:34;;;;;;;7.00;4.03;;;;;;;24.41;20.75;98363.03;5051588;28;20044;-89
2021/04/17 05:50:00;;;;;;;6.82;4.20;;;;;;;24.48;20.71;98365.72;5050432;28;20139;-90
2021/04/17 05:52:26;;;;;;;5.45;3.67;;;;;;;24.24;20.91;98362.13;5053710;28;20033;-90
2021/04/17 05:54:52;;;;;;;4.18;3.58;;;;;;;24.41;21.04;98357.44;5048031;28;20032;-89
2021/04/17 05:57:18;;;;;;;5.85;3.63;;;;;;;23.23;21.99;98368.09;5048406;28;20108;-89
2021/04/17 05:59:44;;;;;;;3.97;2.83;;;;;;;23.25;22.15;98372.06;5053604;28;20109;-89
2021/04/17 06:02:10;;;;;;;6.25;3.53;;;;;;;22.71;22.51;98364.78;5048200;28;20040;-90
2021/04/17 06:04:36;;;;;;;4.20;2.75;;;;;;;22.36;23.38;98373.53;5059140;28;20021;-91
2021/04/17 06:07:02;;;;;;;3.67;3.05;;;;;;;23.11;22.71;98368.66;5039951;28;20040;-92
2021/04/17 06:09:29;;;;;;;3.08;2.67;;;;;;;22.96;22.52;98370.09;5049185;28;20079;-91
2021/04/17 06:11:56;;;;;;;4.93;2.70;;;;;;;22.75;22.82;98364.75;5036013;28;20053;-90
2021/04/17 06:14:22;;;;;;;3.58;3.28;;;;;;;22.78;22.92;98369.50;5049519;28;20112;-88
2021/04/17 06:16:49;;;;;;;3.38;3.05;;;;;;;22.80;22.67;98361.50;5051728;28;20104;-89
2021/04/17 06:19:15;;;;;;;5.95;4.55;;;;;;;22.57;22.91;98362.09;5068332;28;20401;-89
2021/04/17 06:21:41;;;;;;;6.25;4.72;;;;;;;23.14;22.58;98371.44;5054324;28;20509;-91
2021/04/17 06:24:08;;;;;;;6.32;3.83;;;;;;;22.77;22.51;98367.91;5053067;28;20075;-94
2021/04/17 06:26:34;;;;;;;6.80;3.90;;;;;;;23.17;22.46;98367.00;5052388;28;20036;-89
2021/04/17 06:29:00;;;;;;;5.22;3.55;;;;;;;23.61;22.39;98357.56;5051021;28;20044;-88
2021/04/17 06:31:26;;;;;;;8.82;5.47;;;;;;;24.37;21.42;98357.47;5049827;28;20513;-92
2021/04/17 06:33:52;;;;;;;6.18;4.97;;;;;;;24.08;21.25;98361.22;5044589;28;20037;-88
2021/04/17 06:36:19;;;;;;;6.32;4.35;;;;;;;24.63;21.04;98355.78;5053396;28;20402;-95
2021/04/17 06:38:45;;;;;;;6.43;4.00;;;;;;;24.94;20.30;98354.38;5047778;28;20021;-90
2021/04/17 06:41:12;;;;;;;6.70;4.43;;;;;;;25.17;20.13;98356.28;5043329;28;20380;-93
2021/04/17 06:43:42;;;;;;;5.22;3.33;;;;;;;24.91;20.33;98354.44;5045841;28;20494;-92
2021/04/17 06:46:13;;;;;;;3.67;2.47;;;;;;;24.13;21.52;98364.34;5050946;28;20052;-89
2021/04/17 06:48:40;;;;;;;4.18;2.85;;;;;;;23.68;21.73;98360.25;5052314;28;20029;-96
2021/04/17 06:51:14;;;;;;;2.60;2.13;;;;;;;24.03;21.65;98354.88;5052212;28;20387;-94
2021/04/17 06:53:41;;;;;;;3.20;2.90;;;;;;;23.63;22.09;98363.53;5051311;28;20037;-91
2021/04/17 06:56:10;;;;;;;4.85;3.15;;;;;;;23.98;21.76;98354.56;5046513;28;20552;-90
2021/04/17 06:58:39;;;;;;;2.65;2.22;;;;;;;23.41;22.07;98359.50;5048678;28;20575;-90
2021/04/17 07:01:07;;;;;;;3.17;2.88;;;;;;;22.96;22.75;98372.88;5050912;28;20065;-92
2021/04/17 07:03:33;;;;;;;3.28;2.97;;;;;;;22.13;23.69;98367.75;5043682;28;20431;-88
2021/04/17 07:06:00;;;;;;;3.88;3.38;;;;;;;22.79;23.09;98369.09;5048539;28;20086;-94
2021/04/17 07:08:26;;;;;;;3.65;2.63;;;;;;;23.65;22.16;98364.72;5040840;28;20099;-94
2021/04/17 07:10:52;;;;;;;3.05;2.72;;;;;;;24.10;21.90;98367.22;5047579;28;20224;-95
2021/04/17 07:13:18;;;;;;;3.80;3.08;;;;;;;23.88;21.64;98370.34;5051480;28;20025;-93
2021/04/17 07:15:45;;;;;;;3.03;2.42;;;;;;;24.56;21.31;98369.94;5049398;28;20041;-92
2021/04/17 07:18:26;;;;;;;3.47;3.10;;;;;;;24.93;20.79;98368.84;5052450;28;20051;-89
2021/04/17 07:20:54;;;;;;;3.58;2.95;;;;;;;24.63;20.92;98361.38;5049472;28;20040;-83
2021/04/17 07:23:32;;;;;;;4.90;3.08;;;;;;;24.84;20.78;98368.63;5047387;28;20432;-85
2021/04/17 07:26:14;;;;;;;3.88;2.97;;;;;;;24.95;20.51;98361.56;5049640;28;20035;-86
2021/04/17 07:28:55;;;;;;;3.55;2.78;;;;;;;25.55;20.19;98373.53;5044158;28;20179;-85
2021/04/17 07:31:24;;;;;;;4.68;3.63;;;;;;;25.35;20.27;98370.72;5046773;28;20573;-85
2021/04/17 07:33:51;;;;;;;4.53;3.17;;;;;;;25.20;20.24;98375.91;5052663;28;20493;-86
2021/04/17 07:36:18;;;;;;;6.25;4.55;;;;;;;24.73;20.74;98369.63;5049559;28;20029;-86
2021/04/17 07:38:46;;;;;;;7.43;4.28;;;;;;;24.76;20.85;98367.16;5052659;28;20100;-86
2021/04/17 07:41:20;;;;;;;9.85;4.95;;;;;;;25.15;20.57;98376.41;5051100;28;20103;-85
2021/04/17 07:43:46;;;;;;;7.20;4.60;;;;;;;25.38;20.36;98379.09;5052862;28;20390;-85
2021/04/17 07:46:13;;;;;;;5.07;3.83;;;;;;;25.36;20.17;98377.94;5049945;28;20040;-85
2021/04/17 07:48:39;;;;;;;7.38;3.72;;;;;;;25.41;20.14;98375.38;5044559;28;20051;-86
2021/04/17 07:51:08;;;;;;;4.35;3.28;;;;;;;25.17;20.39;98387.19;5046967;28;20108;-86
2021/04/17 07:53:35;;;;;;;6.50;4.63;;;;;;;24.98;20.43;98379.56;5051619;28;20033;-85
2021/04/17 07:56:32;;;;;;;4.85;3.83;;;;;;;24.90;20.67;98376.09;5049785;28;20053;-86
2021/04/17 07:59:05;;;;;;;4.65;3.42;;;;;;;25.01;20.56;98385.13;5045498;28;20037;-85
2021/04/17 08:01:34;;;;;;;5.85;3.97;;;;;;;24.97;20.44;98383.63;5051476;28;20049;-85
2021/04/17 08:04:02;;;;;;;3.45;3.15;;;;;;;24.42;21.09;98382.25;5048189;28;20029;-85
2021/04/17 08:06:30;;;;;;;5.18;3.58;;;;;;;23.89;21.43;98396.38;5047303;28;20061;-85
2021/04/17 08:08:58;;;;;;;8.30;4.72;;;;;;;23.64;22.22;98391.13;5046716;28;20029;-84
2021/04/17 08:11:27;;;;;;;4.45;3.67;;;;;;;24.48;21.43;98394.56;5047170;28;20048;-85
2021/04/17 08:13:55;;;;;;;6.63;4.30;;;;;;;24.66;20.98;98391.41;5050842;28;20091;-85
2021/04/17 08:16:21;;;;;;;6.88;3.75;;;;;;;24.80;20.90;98387.56;5053413;28;20033;-85
2021/04/17 08:18:48;;;;;;;6.53;4.25;;;;;;;24.67;20.80;98390.97;5059380;28;20033;-85
2021/04/17 08:21:17;;;;;;;8.07;5.70;;;;;;;24.72;21.22;98382.06;5047774;28;20037;-86
2021/04/17 08:23:50;;;;;;;8.75;5.30;;;;;;;25.13;20.83;98392.91;5047840;28;20402;-86
2021/04/17 08:26:17;;;;;;;9.05;6.10;;;;;;;25.46;20.60;98393.03;5051109;28;20072;-85
2021/04/17 08:28:46;;;;;;;5.68;4.22;;;;;;;24.33;21.23;98398.06;5049574;28;20040;-85
2021/04/17 08:31:32;;;;;;;6.13;4.90;;;;;;;24.38;21.40;98398.38;5052392;28;20029;-86
2021/04/17 08:34:18;;;;;;;7.72;4.90;;;;;;;24.48;21.34;98396.59;5050041;28;20025;-86
2021/04/17 08:36:52;;;;;;;10.40;7.00;;;;;;;24.05;21.38;98405.72;5053387;28;20119;-88
2021/04/17 08:39:34;;;;;;;8.45;5.22;;;;;;;24.73;21.04;98399.72;5048900;28;20517;-87
2021/04/17 08:42:09;;;;;;;6.80;4.28;;;;;;;25.22;20.34;98401.53;5049468;28;20029;-87
2021/04/17 08:44:41;;;;;;;7.05;4.70;;;;;;;25.65;20.14;98395.00;5048301;28;20029;-86
2021/04/17 08:47:12;;;;;;;7.25;4.45;;;;;;;25.02;20.32;98397.94;5046810;28;20037;-86
2021/04/17 08:49:42;;;;;;;6.95;4.43;;;;;;;25.28;20.29;98396.97;5051370;28;20037;-86
2021/04/17 08:52:22;;;;;;;7.45;4.40;;;;;;;25.68;20.20;98406.16;5049839;28;20040;-86
2021/04/17 08:55:00;;;;;;;4.75;3.50;;;;;;;25.68;20.14;98396.91;5051278;28;20182;-89
2021/04/17 08:57:27;;;;;;;6.53;4.18;;;;;;;25.29;20.45;98404.19;5048637;28;20064;-88
2021/04/17 08:59:59;;;;;;;6.35;3.90;;;;;;;25.19;20.51;98399.59;5047345;28;20040;-87
2021/04/17 09:02:27;;;;;;;9.98;6.45;;;;;;;23.87;21.58;98404.44;5047053;28;20029;-87
2021/04/17 09:05:16;;;;;;;13.85;7.97;;;;;;;24.93;21.00;98402.53;5050566;28;20060;-86
2021/04/17 09:07:45;;;;;;;8.13;5.78;;;;;;;25.32;20.25;98414.56;5046681;28;20036;-89
2021/04/17 09:10:23;;;;;;;10.63;6.38;;;;;;;25.46;20.19;98401.47;5049814;28;20026;-87
2021/04/17 09:13:20;;;;;;;10.15;6.97;;;;;;;25.08;20.48;98398.22;5050381;28;20681;-89
2021/04/17 09:16:06;;;;;;;7.57;5.65;;;;;;;24.70;21.09;98406.97;5044583;28;20041;-88
2021/04/17 09:18:32;;;;;;;11.02;7.45;;;;;;;24.49;20.70;98403.78;5049285;28;20166;-87
2021/04/17 09:20:59;;;;;;;10.40;6.25;;;;;;;24.95;20.85;98402.94;5050488;28;20108;-84
2021/04/17 09:23:40;;;;;;;7.78;5.60;;;;;;;24.95;20.51;98402.94;5050694;28;20386;-88
2021/04/17 09:26:07;;;;;;;;;;;;;;;24.93;20.68;98394.91;5049345;28;20556;-87
2021/04/17 09:28:38;;;;;;;11.13;6.00;;;;;;;25.67;20.25;98398.16;5054270;28;19924;-88
2021/04/17 09:31:07;;;;;;;6.72;5.03;;;;;;;25.80;19.73;98399.03;5052975;28;20033;-88
2021/04/17 09:33:33;;;;;;;7.40;4.32;;;;;;;26.04;19.54;98392.78;5049672;28;20037;-86
2021/04/17 09:35:59;;;;;;;6.63;4.85;;;;;;;25.79;19.78;98391.84;5051005;28;20040;-87
2021/04/17 09:38:31;;;;;;;6.97;4.60;;;;;;;24.45;21.25;98394.63;5045542;28;20399;-88
2021/04/17 09:40:58;;;;;;;6.35;5.45;;;;;;;24.12;21.44;98395.63;5051846;28;20043;-87
2021/04/17 09:43:31;;;;;;;5.90;4.45;;;;;;;23.81;22.27;98398.50;5042577;28;20021;-87
2021/04/17 09:45:59;;;;;;;7.85;5.28;;;;;;;23.93;22.05;98400.72;5045621;28;20037;-86
2021/04/17 09:48:25;;;;;;;7.55;4.45;;;;;;;23.97;22.01;98398.63;5043069;28;20033;-85
2021/04/17 09:50:56;;;;;;;5.80;4.55;;;;;;;24.39;21.44;98394.31;5046967;28;20091;-86
2021/04/17 09:53:29;;;;;;;7.70;6.10;;;;;;;23.31;22.53;98392.03;5050507;28;20481;-87
2021/04/17 09:56:00;;;;;;;5.18;4.32;;;;;;;23.46;22.37;98398.22;5050480;28;20037;-86
2021/04/17 09:58:30;;;;;;;6.90;4.88;;;;;;;23.37;22.77;98395.97;5044543;28;20390;-86
2021/04/17 10:01:08;;;;;;;7.20;4.75;;;;;;;24.02;22.04;98394.53;5046998;28;20112;-86
2021/04/17 10:03:37;;;;;;;6.55;4.38;;;;;;;24.60;21.59;98396.72;5043175;28;20030;-85
2021/04/17 10:06:04;;;;;;;6.97;4.43;;;;;;;24.83;20.72;98395.13;5045051;28;20513;-86
2021/04/17 10:08:30;;;;;;;5.80;3.95;;;;;;;25.20;21.01;98394.75;5045184;28;20132;-86
2021/04/17 10:10:57;;;;;;;6.55;4.22;;;;;;;24.86;20.98;98389.44;5047047;28;20032;-86
2021/04/17 10:13:46;;;;;;;6.93;4.97;;;;;;;23.65;22.32;98395.53;5042960;28;20551;-85
2021/04/17 10:16:14;;;;;;;5.68;4.45;;;;;;;23.91;22.02;98396.75;5039303;28;20112;-85
2021/04/17 10:18:44;;;;;;;8.15;4.97;;;;;;;24.50;21.66;98391.34;5046417;28;20478;-84
2021/04/17 10:21:11;;;;;;;5.63;4.57;;;;;;;23.90;22.08;98390.34;5050833;28;20029;-85
2021/04/17 10:23:37;;;;;;;6.57;5.13;;;;;;;23.74;22.28;98393.00;5044611;28;20485;-86
2021/04/17 10:26:09;;;;;;;10.68;7.13;;;;;;;22.87;23.31;98397.78;5043135;28;20112;-84
2021/04/17 10:28:37;;;;;;;8.77;5.88;;;;;;;22.52;23.79;98390.56;5042634;28;20123;-86
2021/04/17 10:31:17;;;;;;;7.72;4.60;;;;;;;23.47;22.67;98383.00;5041949;28;20121;-86
2021/04/17 10:33:46;;;;;;;7.68;5.05;;;;;;;23.69;22.51;98385.06;5046228;28;20671;-87
2021/04/17 10:36:21;;;;;;;8.98;5.40;;;;;;;23.30;22.99;98393.22;5043000;28;20033;-87
2021/04/17 10:38:51;;;;;;;6.80;4.72;;;;;;;23.91;22.62;98389.13;5039677;28;20395;-88
2021/04/17 10:41:31;;;;;;;8.15;4.72;;;;;;;24.35;22.39;98392.81;5036597;28;20037;-88
2021/04/17 10:44:14;;;;;;;8.55;6.22;;;;;;;23.76;22.36;98384.94;5040758;28;20529;-87
2021/04/17 10:46:48;;;;;;;10.75;7.32;;;;;;;23.71;22.35;98381.84;5046904;28;20041;-88
2021/04/17 10:49:31;;;;;;;6.45;4.80;;;;;;;24.53;21.81;98387.66;5042298;28;20104;-87
2021/04/17 10:51:58;;;;;;;6.78;4.60;;;;;;;24.33;21.92;98387.63;5036257;28;20032;-87
2021/04/17 10:54:25;;;;;;;8.02;5.53;;;;;;;24.42;21.92;98382.25;5044408;28;20033;-87
2021/04/17 10:57:03;;;;;;;6.13;4.82;;;;;;;24.99;21.50;98381.97;5044221;28;20053;-86
2021/04/17 10:59:52;;;;;;;7.32;4.85;;;;;;;25.34;20.97;98386.03;5043834;28;20078;-86
2021/04/17 11:02:30;;;;;;;7.20;4.72;;;;;;;25.36;21.39;98390.00;5046775;28;20083;-85
2021/04/17 11:04:57;;;;;;;7.30;5.13;;;;;;;25.60;20.51;98379.41;5041220;28;20048;-86
2021/04/17 11:07:38;;;;;;;12.23;6.78;;;;;;;24.61;21.32;98386.31;5039457;28;20783;-85
2021/04/17 11:10:07;;;;;;;9.27;6.10;;;;;;;24.05;22.13;98385.28;5048636;28;20033;-85
2021/04/17 11:12:36;;;;;;;7.55;5.03;;;;;;;24.53;21.89;98393.25;5046331;28;20422;-85
2021/04/17 11:15:19;;;;;;;8.27;6.05;;;;;;;23.77;22.11;98383.75;5067222;28;20032;-85
2021/04/17 11:18:08;;;;;;;9.02;5.78;;;;;;;24.65;21.57;98379.41;5048336;28;20029;-84
2021/04/17 11:20:44;;;;;;;8.00;6.00;;;;;;;24.32;21.75;98383.22;5040398;28;20120;-85
2021/04/17 11:23:43;;;;;;;7.68;5.72;;;;;;;25.00;20.94;98385.53;5041012;28;20197;-86
2021/04/17 11:26:15;;;;;;;7.95;5.80;;;;;;;24.04;22.04;98378.06;5043794;28;20029;-84
2021/04/17 11:28:44;;;;;;;7.10;5.65;;;;;;;24.83;21.56;98383.91;5039564;28;20032;-84
2021/04/17 11:31:11;;;;;;;6.43;4.90;;;;;;;25.30;20.86;98391.72;5041589;28;20045;-84
2021/04/17 11:33:38;;;;;;;8.70;4.28;;;;;;;24.30;21.76;98385.66;5041635;28;20025;-85
2021/04/17 11:36:04;;;;;;;6.75;5.30;;;;;;;24.74;21.68;98384.44;5038249;28;20390;-85
2021/04/17 11:38:30;;;;;;;7.15;5.65;;;;;;;24.17;21.75;98389.53;5044913;28;20056;-85
2021/04/17 11:40:57;;;;;;;8.13;5.47;;;;;;;24.28;22.22;98388.13;5041690;28;20048;-85
2021/04/17 11:43:23;;;;;;;6.50;4.95;;;;;;;24.43;21.62;98394.28;5039147;28;20033;-85